createdAt,value
2022-11-03T00:23:55.014Z,86.71
2022-11-03T00:38:46.625Z,86.48
2022-11-03T00:53:43.564Z,86.72
2022-11-03T01:08:38.857Z,86.10
2022-11-03T01:23:30.093Z,86.57
2022-11-03T01:38:20.710Z,85.56
2022-11-03T01:53:10.950Z,86.03
2022-11-03T02:08:14.149Z,85.90
2022-11-03T02:23:18.563Z,85.64
2022-11-03T02:38:13.944Z,84.59
2022-11-03T02:53:06.060Z,85.24
2022-11-03T03:07:57.299Z,84.96
2022-11-03T03:22:48.118Z,85.11
2022-11-03T03:37:44.015Z,84.97
2022-11-03T03:52:35.023Z,85.94
2022-11-03T04:07:45.124Z,86.72
2022-11-03T04:22:38.505Z,86.25
2022-11-03T04:37:29.422Z,85.03
2022-11-03T04:52:21.833Z,85.56
2022-11-03T05:07:26.321Z,85.62
2022-11-03T05:22:22.103Z,85.34
2022-11-03T05:37:36.076Z,85.28
2022-11-03T05:52:33.283Z,85.16
2022-11-03T06:07:29.938Z,85.63
2022-11-03T06:22:27.249Z,88.33
2022-11-03T06:37:22.286Z,89.26
2022-11-03T06:52:32.438Z,90.19
2022-11-03T07:07:30.050Z,89.47
2022-11-03T07:22:21.854Z,89.42
2022-11-03T07:37:18.960Z,88.37
2022-11-03T07:52:15.030Z,88.37
2022-11-03T08:07:07.139Z,88.45
2022-11-03T08:21:59.709Z,88.11
2022-11-03T08:36:52.487Z,86.95
2022-11-03T08:51:45.238Z,85.99
2022-11-03T09:06:37.506Z,85.54
2022-11-03T09:21:30.168Z,84.77
2022-11-03T09:36:21.929Z,83.33
2022-11-03T09:51:13.450Z,83.97
2022-11-03T10:06:06.271Z,83.23
2022-11-03T10:20:57.359Z,82.25
2022-11-03T10:35:48.562Z,80.17
2022-11-03T10:50:40.887Z,80.04
2022-11-03T11:05:31.783Z,79.41
2022-11-03T11:20:32.630Z,78.17
2022-11-03T11:35:29.562Z,76.88
2022-11-03T11:50:23.476Z,77.32
2022-11-03T12:05:18.080Z,76.60
2022-11-03T12:20:35.081Z,76.23
2022-11-03T12:35:32.275Z,77.54
2022-11-03T12:50:24.138Z,77.39
2022-11-03T13:05:15.782Z,77.39
2022-11-03T13:20:07.220Z,77.92
2022-11-03T13:34:59.749Z,78.38
2022-11-03T13:50:13.098Z,79.40
2022-11-03T14:19:45.945Z,80.25
2022-11-03T14:34:32.248Z,80.75
2022-11-03T15:04:15.289Z,82.09
2022-11-03T15:19:06.702Z,82.75
2022-11-03T16:03:40.186Z,85.95
2022-11-03T16:18:30.972Z,86.73
2022-11-03T16:33:22.085Z,88.17
2022-11-03T16:48:13.299Z,89.38
2022-11-03T17:03:05.026Z,93.02
2022-11-03T17:17:56.047Z,96.02
2022-11-03T17:32:47.256Z,97.59
2022-11-03T17:47:38.642Z,98.28
2022-11-03T18:02:31.170Z,99.41
2022-11-03T18:17:23.207Z,100.00
2022-11-03T18:32:14.806Z,100.00
2022-11-03T18:47:06.750Z,100.00
2022-11-03T19:01:58.060Z,100.00
2022-11-03T19:17:02.198Z,100.00
2022-11-03T19:31:42.003Z,100.00
2022-11-03T19:46:33.843Z,100.00
2022-11-03T20:01:25.918Z,100.00
2022-11-03T20:16:18.209Z,100.00
2022-11-03T20:31:10.097Z,100.00
2022-11-03T20:46:02.561Z,100.00
2022-11-03T21:00:56.250Z,100.00
2022-11-03T21:16:23.539Z,100.00
2022-11-03T21:31:04.049Z,100.00
2022-11-03T21:45:55.363Z,100.00
2022-11-03T22:00:46.655Z,100.00
2022-11-03T22:15:57.891Z,98.04
2022-11-03T22:31:12.455Z,97.13
2022-11-03T22:46:10.078Z,96.02
2022-11-03T23:01:07.213Z,95.58
2022-11-03T23:16:08.872Z,94.84
2022-11-03T23:31:04.184Z,95.56
2022-11-03T23:46:14.165Z,96.65
